createdAt,value
2019-05-21T00:11:00.528Z,21.2
2019-05-21T01:18:35.654Z,21.1
2019-05-21T01:31:06.611Z,21.1
2019-05-21T01:34:26.595Z,21.1
2019-05-21T01:36:56.776Z,21.1
2019-05-21T01:37:47.107Z,21.1
2019-05-21T01:38:37.211Z,21.1
2019-05-21T01:39:27.239Z,21.1
2019-05-21T01:40:17.307Z,21.1
2019-05-21T01:41:07.098Z,21.1
2019-05-21T01:42:47.494Z,21.1
2019-05-21T01:43:37.554Z,21.1
2019-05-21T01:44:27.609Z,21.1
2019-05-21T01:45:17.413Z,21.1
2019-05-21T01:46:07.753Z,21.1
2019-05-21T01:46:57.819Z,21.1
2019-05-21T01:47:47.334Z,21.1
2019-05-21T01:48:37.939Z,21.1
2019-05-21T01:49:27.734Z,21.1
2019-05-21T01:50:18.060Z,21.1
2019-05-21T01:51:08.134Z,21.1
2019-05-21T01:51:58.204Z,21.1
2019-05-21T01:52:48.306Z,21.1
2019-05-21T01:53:38.543Z,21.1
2019-05-21T01:54:27.843Z,21.1
2019-05-21T01:55:18.160Z,21.1
2019-05-21T01:56:08.509Z,21.1
2019-05-21T01:56:58.316Z,21.1
2019-05-21T01:57:48.630Z,21.1
2019-05-21T01:58:38.490Z,21.1
2019-05-21T01:59:28.483Z,21.1
2019-05-21T02:00:18.544Z,21.1
2019-05-21T02:01:08.899Z,21.1
2019-05-21T02:01:58.943Z,21.1
2019-05-21T02:02:49.025Z,21.1
2019-05-21T02:03:38.814Z,21.1
2019-05-21T02:04:29.149Z,21.1
2019-05-21T02:05:34.251Z,21.1
2019-05-21T02:06:09.253Z,21.1
2019-05-21T02:06:59.057Z,21.1
2019-05-21T02:07:49.392Z,21.1
2019-05-21T02:08:39.455Z,21.1
2019-05-21T02:09:29.525Z,21.1
2019-05-21T02:10:19.323Z,21.1
2019-05-21T02:11:09.372Z,21.1
2019-05-21T02:11:59.722Z,21.1
2019-05-21T02:12:49.785Z,21.1
2019-05-21T02:13:39.562Z,21.1
2019-05-21T02:14:29.892Z,21.1
2019-05-21T02:15:19.957Z,21.1
2019-05-21T02:16:10.029Z,21.1
2019-05-21T02:17:00.085Z,21.1
2019-05-21T02:17:50.150Z,21.1
2019-05-21T02:18:39.978Z,21.1
2019-05-21T02:19:30.269Z,21.1
2019-05-21T02:20:20.352Z,21.1
2019-05-21T02:21:10.409Z,21.1
2019-05-21T02:22:00.492Z,21.1
2019-05-21T02:22:50.564Z,21.1
2019-05-21T02:23:40.596Z,21.1
2019-05-21T02:24:30.655Z,21.1
2019-05-21T02:25:20.473Z,21
2019-05-21T02:26:10.794Z,21.1
2019-05-21T02:27:00.577Z,21.1
2019-05-21T02:27:50.917Z,21.1
2019-05-21T02:28:40.707Z,21.1
2019-05-21T02:29:31.061Z,21.1
2019-05-21T02:30:21.106Z,21.1
2019-05-21T02:31:11.172Z,21.1
2019-05-21T02:32:01.274Z,21.1
2019-05-21T02:32:51.301Z,21
2019-05-21T02:33:41.368Z,21.1
2019-05-21T02:34:31.207Z,21
2019-05-21T02:35:21.494Z,21.1
2019-05-21T02:36:11.556Z,21.1
2019-05-21T02:37:05.286Z,21.1
2019-05-21T02:37:51.414Z,21.1
2019-05-21T02:38:41.752Z,21
2019-05-21T02:39:31.573Z,21.1
2019-05-21T02:40:21.926Z,21.1
2019-05-21T02:41:11.927Z,21
2019-05-21T02:42:02.090Z,21.1
2019-05-21T02:42:52.059Z,21.1
2019-05-21T02:43:42.137Z,21.1
2019-05-21T02:44:32.186Z,21.1
2019-05-21T02:45:22.016Z,21.1
2019-05-21T02:46:11.790Z,21.1
2019-05-21T02:47:02.440Z,21
2019-05-21T02:47:52.434Z,21.1
2019-05-21T02:48:42.511Z,21.1
2019-05-21T02:49:32.493Z,21
2019-05-21T02:50:22.640Z,21.1
2019-05-21T02:51:12.467Z,21
2019-05-21T02:52:02.801Z,21.1
2019-05-21T02:52:52.828Z,21.1
2019-05-21T02:53:42.605Z,21
2019-05-21T02:54:42.675Z,21
2019-05-21T02:55:22.731Z,21.1
2019-05-21T02:56:13.081Z,21
2019-05-21T02:57:03.170Z,21.1
2019-05-21T02:57:53.188Z,21
2019-05-21T02:58:43.268Z,21
2019-05-21T02:59:33.338Z,21.1
2019-05-21T03:00:23.390Z,21
2019-05-21T03:01:16.918Z,21
2019-05-21T03:02:03.509Z,21
2019-05-21T03:02:53.042Z,21.1
2019-05-21T03:06:22.233Z,21
2019-05-21T03:07:12.300Z,21.1
2019-05-21T03:08:02.649Z,21
2019-05-21T03:08:52.694Z,21
2019-05-21T03:09:42.807Z,21.1
2019-05-21T03:10:32.818Z,21
2019-05-21T03:11:22.881Z,21.1
2019-05-21T03:12:12.959Z,21.1
2019-05-21T03:13:03.029Z,21
2019-05-21T03:13:52.799Z,21.1
2019-05-21T03:14:42.879Z,21
2019-05-21T03:15:33.241Z,21
2019-05-21T03:16:23.260Z,21
2019-05-21T03:17:13.352Z,21
2019-05-21T03:18:03.437Z,21
2019-05-21T03:18:53.171Z,21.1
2019-05-21T03:19:43.251Z,21
2019-05-21T03:20:33.327Z,21.1
2019-05-21T03:21:23.368Z,21
2019-05-21T03:22:13.717Z,21.1
2019-05-21T03:23:03.498Z,21.1
2019-05-21T03:23:53.281Z,21.1
2019-05-21T03:24:43.896Z,21.1
2019-05-21T03:25:33.412Z,21.1
2019-05-21T03:26:23.742Z,21.1
2019-05-21T03:27:13.817Z,21.1
2019-05-21T03:28:04.167Z,21.1
2019-05-21T03:28:54.213Z,21.1
2019-05-21T03:29:44.054Z,21.1
2019-05-21T03:30:34.100Z,21.1
2019-05-21T03:31:24.432Z,21.1
2019-05-21T03:32:14.541Z,21.1
2019-05-21T03:33:04.296Z,21.1
2019-05-21T03:34:44.654Z,21.1
2019-05-21T03:40:35.115Z,21.2
2019-05-21T03:43:05.301Z,21.2
2019-05-21T03:43:55.112Z,21.2
2019-05-21T03:45:01.644Z,21.2
2019-05-21T03:46:25.271Z,21.2
2019-05-21T03:47:15.303Z,21.2
2019-05-21T03:48:05.672Z,21.2
2019-05-21T03:48:55.454Z,21.2
2019-05-21T03:49:45.797Z,21.2
2019-05-21T03:50:35.886Z,21.3
2019-05-21T03:51:25.920Z,21.3
2019-05-21T03:52:15.437Z,21.3
2019-05-21T03:53:05.797Z,21.3
2019-05-21T03:53:56.106Z,21.3
2019-05-21T03:54:46.162Z,21.3
2019-05-21T03:55:36.247Z,21.3
2019-05-21T03:56:26.396Z,21.3
2019-05-21T03:57:16.465Z,21.3
2019-05-21T03:58:05.907Z,21.3
2019-05-21T03:58:56.232Z,21.3
2019-05-21T03:59:46.559Z,21.3
2019-05-21T04:00:36.607Z,21.3
2019-05-21T04:01:26.678Z,21.3
2019-05-21T04:02:16.733Z,21.3
2019-05-21T04:03:06.535Z,21.4
2019-05-21T04:03:56.587Z,21.3
2019-05-21T04:04:46.931Z,21.3
2019-05-21T04:05:36.727Z,21.4
2019-05-21T04:06:29.890Z,21.4
2019-05-21T04:07:16.878Z,21.4
2019-05-21T04:08:07.186Z,21.4
2019-05-21T04:08:57.374Z,21.4
2019-05-21T04:09:47.309Z,21.4
2019-05-21T04:10:37.086Z,21.4
2019-05-21T04:11:27.478Z,21.4
2019-05-21T04:12:17.500Z,21.4
2019-05-21T04:13:08.265Z,21.4
2019-05-21T04:13:57.623Z,21.4
2019-05-21T04:14:47.695Z,21.4
2019-05-21T04:15:37.476Z,21.4
2019-05-21T04:16:27.826Z,21.5
2019-05-21T04:17:17.868Z,21.5
2019-05-21T04:18:07.937Z,21.6
2019-05-21T04:18:57.993Z,21.8
2019-05-21T04:19:47.785Z,22.3
2019-05-21T04:20:37.591Z,22.7
2019-05-21T04:21:28.215Z,22.9
2019-05-21T04:22:18.301Z,22.9
2019-05-21T04:23:08.046Z,22.7
2019-05-21T04:23:58.400Z,22.6
2019-05-21T04:24:48.215Z,22.4
2019-05-21T04:25:38.222Z,22.4
2019-05-21T04:26:28.644Z,22.4
2019-05-21T04:27:18.640Z,22.3
2019-05-21T04:28:08.723Z,22.3
2019-05-21T04:28:58.762Z,22.3
2019-05-21T04:29:48.533Z,22.3
2019-05-21T04:30:38.891Z,22.3
2019-05-21T04:31:29.017Z,22.3
2019-05-21T04:32:19.024Z,22.3
2019-05-21T04:33:09.076Z,22.3
2019-05-21T04:33:59.151Z,22.3
2019-05-21T04:34:48.929Z,22.2
2019-05-21T04:35:39.276Z,22.2
2019-05-21T04:36:29.324Z,22.2
2019-05-21T04:37:19.408Z,22.1
2019-05-21T04:38:09.462Z,22.1
2019-05-21T04:38:59.251Z,22.1
2019-05-21T04:39:49.622Z,22.1
2019-05-21T04:40:39.642Z,22.1
2019-05-21T04:41:29.734Z,22.1
2019-05-21T04:42:19.501Z,22.1
2019-05-21T04:43:09.845Z,22.1
2019-05-21T04:43:59.625Z,22.1
2019-05-21T04:44:49.696Z,22.1
2019-05-21T04:45:40.028Z,22.1
2019-05-21T04:46:30.089Z,22.1
2019-05-21T04:47:20.147Z,22.1
2019-05-21T04:48:10.215Z,22.1
2019-05-21T04:49:00.006Z,22.1
2019-05-21T04:49:50.334Z,22.1
2019-05-21T04:50:40.398Z,22.1
2019-05-21T04:51:30.191Z,22.1
2019-05-21T04:52:20.257Z,22.1
2019-05-21T04:53:10.316Z,22.1
2019-05-21T04:54:00.653Z,22.1
2019-05-21T04:54:50.735Z,22.1
2019-05-21T04:55:40.798Z,22.1
2019-05-21T04:56:30.560Z,22.2
2019-05-21T04:57:20.632Z,22.1
2019-05-21T04:58:10.987Z,22.2
2019-05-21T04:59:01.036Z,22.2
2019-05-21T04:59:51.093Z,22.2
2019-05-21T05:00:40.927Z,22.2
2019-05-21T05:01:30.948Z,22.2
2019-05-21T05:02:21.003Z,22.2
2019-05-21T05:03:11.084Z,22.2
2019-05-21T05:04:01.428Z,22.2
2019-05-21T05:04:51.511Z,22.2
2019-05-21T05:05:41.270Z,22.2
2019-05-21T05:06:31.599Z,22.2
2019-05-21T05:07:29.562Z,22.2
2019-05-21T05:08:11.455Z,22.2
2019-05-21T05:09:01.568Z,22.2
2019-05-21T05:09:51.573Z,22.2
2019-05-21T05:10:41.629Z,22.2
2019-05-21T05:11:31.969Z,22.2
2019-05-21T05:12:22.045Z,22.2
2019-05-21T05:13:11.820Z,22.1
2019-05-21T05:14:02.155Z,22.2
2019-05-21T05:14:52.218Z,22.2
2019-05-21T05:15:42.292Z,22.2
2019-05-21T05:16:32.349Z,22.2
2019-05-21T05:17:22.147Z,22.2
2019-05-21T05:18:12.482Z,22.2
2019-05-21T05:19:02.257Z,22.2
2019-05-21T05:19:52.622Z,22.2
2019-05-21T05:20:42.397Z,22.2
2019-05-21T05:21:32.719Z,22.2
2019-05-21T05:22:22.798Z,22.2
2019-05-21T05:23:12.861Z,22.2
2019-05-21T05:24:03.061Z,22.1
2019-05-21T05:24:52.713Z,22.2
2019-05-21T05:25:42.771Z,22.2
2019-05-21T05:26:33.114Z,22.2
2019-05-21T05:27:22.901Z,22.2
2019-05-21T05:28:13.233Z,22.2
2019-05-21T05:29:03.299Z,22.2
2019-05-21T05:29:53.359Z,22.2
2019-05-21T05:30:43.162Z,22.2
2019-05-21T05:31:33.223Z,22.2
2019-05-21T05:32:23.550Z,22.2
2019-05-21T05:33:13.351Z,22.2
2019-05-21T05:34:03.671Z,22.2
2019-05-21T05:34:53.746Z,22.2
2019-05-21T05:35:43.798Z,22.2
2019-05-21T05:36:33.931Z,22.2
2019-05-21T05:37:23.387Z,22.2
2019-05-21T05:38:14.023Z,22.2
2019-05-21T05:39:04.064Z,22.2
2019-05-21T05:39:54.133Z,22.2
2019-05-21T05:40:44.182Z,22.2
2019-05-21T05:41:34.243Z,22.2
2019-05-21T05:42:24.034Z,22.2
2019-05-21T05:43:14.363Z,22.2
2019-05-21T05:44:04.485Z,22.2
2019-05-21T05:44:54.552Z,22.2
2019-05-21T05:45:44.575Z,22.2
2019-05-21T05:46:34.625Z,22.2
2019-05-21T05:47:24.695Z,22.2
2019-05-21T05:48:14.791Z,22.2
2019-05-21T05:49:04.967Z,22.2
2019-05-21T05:49:54.610Z,22.2
2019-05-21T05:50:44.673Z,22.2
2019-05-21T05:51:35.004Z,22.2
2019-05-21T05:52:25.078Z,22.2
2019-05-21T05:53:15.150Z,22.2
2019-05-21T05:54:08.652Z,22.2
2019-05-21T05:54:54.987Z,22.2
2019-05-21T05:55:45.336Z,22.2
2019-05-21T05:56:35.382Z,22.2
2019-05-21T05:57:25.222Z,22.2
2019-05-21T05:58:15.502Z,22.2
2019-05-21T05:59:05.589Z,22.2
2019-05-21T05:59:55.666Z,22.2
2019-05-21T06:00:45.719Z,22.2
2019-05-21T06:01:35.767Z,22.2
2019-05-21T06:02:25.817Z,22.2
2019-05-21T06:04:22.396Z,22.2
2019-05-21T06:05:12.476Z,22.2
2019-05-21T06:06:02.506Z,22.2
2019-05-21T06:06:52.627Z,22.2
2019-05-21T06:07:42.707Z,22.2
2019-05-21T06:08:32.445Z,22.2
2019-05-21T06:09:22.496Z,22.2
2019-05-21T06:10:12.859Z,22.2
2019-05-21T06:11:03.068Z,22.2
2019-05-21T06:11:53.009Z,22.2
2019-05-21T06:12:43.034Z,22.2
2019-05-21T06:13:33.074Z,22.2
2019-05-21T06:14:23.141Z,22.2
2019-05-21T06:15:13.206Z,22.2
2019-05-21T06:16:03.271Z,22.2
2019-05-21T06:16:53.333Z,22.2
2019-05-21T06:17:43.126Z,22.2
2019-05-21T06:18:36.542Z,22.2
2019-05-21T06:19:23.532Z,22.2
2019-05-21T06:20:13.584Z,22.2
2019-05-21T06:21:03.390Z,22.2
2019-05-21T06:21:53.440Z,22.2
2019-05-21T06:22:43.524Z,22.2
2019-05-21T06:23:33.568Z,22.2
2019-05-21T06:24:23.924Z,22.2
2019-05-21T06:25:13.984Z,22.2
2019-05-21T06:26:03.895Z,22.2
2019-05-21T06:26:54.087Z,22.2
2019-05-21T06:27:43.876Z,22.2
2019-05-21T06:28:34.232Z,22.2
2019-05-21T06:29:24.007Z,22.2
2019-05-21T06:30:14.093Z,22.2
2019-05-21T06:31:04.132Z,22.2
2019-05-21T06:31:54.205Z,22.2
2019-05-21T06:32:44.260Z,22.2
2019-05-21T06:33:34.610Z,22.2
2019-05-21T06:34:24.656Z,22.2
2019-05-21T06:35:14.442Z,22.2
2019-05-21T06:36:04.555Z,22.2
2019-05-21T06:36:54.860Z,22.1
2019-05-21T06:37:44.920Z,22.2
2019-05-21T06:38:34.700Z,22.1
2019-05-21T06:39:25.050Z,22.2
2019-05-21T06:40:14.850Z,22.1
2019-05-21T06:41:05.323Z,22.1
2019-05-21T06:41:54.971Z,22.1
2019-05-21T06:42:45.292Z,22.1
2019-05-21T06:43:35.384Z,22.1
2019-05-21T06:44:25.417Z,22.2
2019-05-21T06:45:15.210Z,22.1
2019-05-21T06:46:05.283Z,22.1
2019-05-21T06:46:55.605Z,22.1
2019-05-21T06:47:45.672Z,22.1
2019-05-21T06:48:35.736Z,22.1
2019-05-21T06:49:25.548Z,22.1
2019-05-21T06:50:15.868Z,22.1
2019-05-21T06:51:05.377Z,22.2
2019-05-21T06:51:56.055Z,22.1
2019-05-21T06:52:46.057Z,22.1
2019-05-21T06:53:36.112Z,22.1
2019-05-21T06:54:26.179Z,22.1
2019-05-21T06:55:16.250Z,22.1
2019-05-21T06:56:08.486Z,22.1
2019-05-21T06:56:56.383Z,22.2
2019-05-21T06:57:46.440Z,22.1
2019-05-21T06:58:35.948Z,22.1
2019-05-21T06:59:26.671Z,22.1
2019-05-21T07:00:16.355Z,22.1
2019-05-21T07:01:06.417Z,22.1
2019-05-21T07:01:56.505Z,22.1
2019-05-21T07:04:22.407Z,22.1
2019-05-21T07:05:12.502Z,22.1
2019-05-21T07:06:02.215Z,22.1
2019-05-21T07:06:52.542Z,22.2
2019-05-21T07:07:42.625Z,22.2
2019-05-21T07:08:36.214Z,22.2
2019-05-21T07:09:22.726Z,22.2
2019-05-21T07:10:12.804Z,22.2
2019-05-21T07:11:03.127Z,22.2
2019-05-21T07:11:52.648Z,22.2
2019-05-21T07:12:43.019Z,22.2
2019-05-21T07:13:33.071Z,22.2
2019-05-21T07:14:23.111Z,22.3
2019-05-21T07:15:12.909Z,22.3
2019-05-21T07:16:03.266Z,22.2
2019-05-21T07:16:53.022Z,22.2
2019-05-21T07:17:42.829Z,22.2
2019-05-21T07:18:33.418Z,22.2
2019-05-21T07:19:23.497Z,22.2
2019-05-21T07:20:13.412Z,22.2
2019-05-21T07:21:03.348Z,22.2
2019-05-21T07:21:53.682Z,22.2
2019-05-21T07:22:43.960Z,22.2
2019-05-21T07:23:33.812Z,22.2
2019-05-21T07:24:27.601Z,22.2
2019-05-21T07:25:14.433Z,22.1
2019-05-21T07:26:04.000Z,22.2
2019-05-21T07:26:54.072Z,22.2
2019-05-21T07:27:43.573Z,22.1
2019-05-21T07:28:34.015Z,22.2
2019-05-21T07:29:24.259Z,22.2
2019-05-21T07:30:14.313Z,22.1
2019-05-21T07:31:04.392Z,22.1
2019-05-21T07:31:54.197Z,22.1
2019-05-21T07:32:44.809Z,22.2
2019-05-21T07:33:34.295Z,22.1
2019-05-21T07:34:24.650Z,22.1
2019-05-21T07:35:14.753Z,22.1
2019-05-21T07:36:04.765Z,22.1
2019-05-21T07:36:54.573Z,22.1
2019-05-21T07:37:44.406Z,22.1
2019-05-21T07:38:54.694Z,22.1
2019-05-21T07:39:25.065Z,22.2
2019-05-21T07:40:15.075Z,22.1
2019-05-21T07:41:04.605Z,22.1
2019-05-21T07:41:55.220Z,22.1
2019-05-21T07:42:44.994Z,22.1
2019-05-21T07:43:35.530Z,22.1
2019-05-21T07:44:25.396Z,22.1
2019-05-21T07:45:15.458Z,22.1
2019-05-21T07:46:05.725Z,22.1
2019-05-21T07:46:55.585Z,22.1
2019-05-21T07:47:45.642Z,22.1
2019-05-21T07:48:35.890Z,22.1
2019-05-21T07:49:25.787Z,22.1
2019-05-21T07:50:15.842Z,22.1
2019-05-21T07:51:05.911Z,22.1
2019-05-21T07:51:55.983Z,22.1
2019-05-21T07:52:46.035Z,22.1
2019-05-21T07:53:36.111Z,22.1
2019-05-21T07:54:29.088Z,22.1
2019-05-21T07:55:15.951Z,22.1
2019-05-21T07:56:06.016Z,22.1
2019-05-21T07:56:56.362Z,22.1
2019-05-21T07:57:46.415Z,22.1
2019-05-21T07:58:36.201Z,22.1
2019-05-21T07:59:26.296Z,22.1
2019-05-21T08:00:16.657Z,22.1
2019-05-21T08:01:06.664Z,22.1
2019-05-21T08:01:56.749Z,22.1
2019-05-21T08:02:46.543Z,22.1
2019-05-21T08:03:36.883Z,22.1
2019-05-21T08:04:26.914Z,22.1
2019-05-21T08:05:17.049Z,22.1
2019-05-21T08:06:06.776Z,22.1
2019-05-21T08:06:57.131Z,22.1
2019-05-21T08:07:47.168Z,22.1
2019-05-21T08:08:37.239Z,22.1
2019-05-21T08:09:27.308Z,22.1
2019-05-21T08:10:17.368Z,22.1
2019-05-21T08:11:07.420Z,22.1
2019-05-21T08:11:57.484Z,22.1
2019-05-21T08:12:47.285Z,22.1
2019-05-21T08:13:37.618Z,22.1
2019-05-21T08:14:27.685Z,22.1
2019-05-21T08:15:17.750Z,22.1
2019-05-21T08:16:07.538Z,22.1
2019-05-21T08:16:57.878Z,22.1
2019-05-21T08:17:47.937Z,22.1
2019-05-21T08:18:38.011Z,22.1
2019-05-21T08:19:32.031Z,22.1
2019-05-21T08:20:17.847Z,22.1
2019-05-21T08:21:07.909Z,22.1
2019-05-21T08:21:58.267Z,22.1
2019-05-21T08:22:48.042Z,22.1
2019-05-21T08:23:38.105Z,22.1
2019-05-21T08:24:28.179Z,22.1
2019-05-21T08:25:18.236Z,22.1
2019-05-21T08:26:08.292Z,22.1
2019-05-21T08:26:58.366Z,22.1
2019-05-21T08:27:48.692Z,22.1
2019-05-21T08:28:38.766Z,22.1
2019-05-21T08:29:28.841Z,22.1
2019-05-21T08:30:18.425Z,22.1
2019-05-21T08:31:08.982Z,22.1
2019-05-21T08:31:58.732Z,22.1
2019-05-21T08:32:49.074Z,22.1
2019-05-21T08:33:39.139Z,22.1
2019-05-21T08:34:29.260Z,22.1
2019-05-21T08:35:19.270Z,22.1
2019-05-21T08:36:09.339Z,22.1
2019-05-21T08:36:59.517Z,22.1
2019-05-21T08:37:49.476Z,22.1
2019-05-21T08:38:39.679Z,22.1
2019-05-21T08:39:29.904Z,22.1
2019-05-21T08:40:19.641Z,22.1
2019-05-21T08:41:09.438Z,22.1
2019-05-21T08:41:59.777Z,22.1
2019-05-21T08:42:49.853Z,22.1
2019-05-21T08:43:39.909Z,22.1
2019-05-21T08:44:29.977Z,22.1
2019-05-21T08:45:19.761Z,22.1
2019-05-21T08:46:09.826Z,22.1
2019-05-21T08:46:59.910Z,22.1
2019-05-21T08:47:50.214Z,22.1
2019-05-21T08:48:40.334Z,22.1
2019-05-21T08:49:30.093Z,22.1
2019-05-21T08:50:20.142Z,22.1
2019-05-21T08:51:10.473Z,22.1
2019-05-21T08:52:00.545Z,22.1
2019-05-21T08:52:50.686Z,22.1
2019-05-21T08:53:40.740Z,22.1
2019-05-21T08:54:30.453Z,22.1
2019-05-21T08:55:20.800Z,22.1
2019-05-21T08:56:10.581Z,22.1
2019-05-21T08:57:00.648Z,22.1
2019-05-21T08:58:08.347Z,22.1
2019-05-21T08:59:30.857Z,22.1
2019-05-21T09:00:21.265Z,22.1
2019-05-21T09:01:11.242Z,22.1
2019-05-21T09:02:01.187Z,22.1
2019-05-21T09:02:51.480Z,22.1
2019-05-21T09:03:41.433Z,22.1
2019-05-21T09:04:47.487Z,22.1
2019-05-21T09:06:11.077Z,22.1
2019-05-21T09:07:01.146Z,22.1
2019-05-21T09:07:54.993Z,22.1
2019-05-21T09:08:41.807Z,22.1
2019-05-21T09:09:52.516Z,22.1
2019-05-21T09:11:11.742Z,22.1
2019-05-21T09:12:02.119Z,22.1
2019-05-21T09:12:52.184Z,22.1
2019-05-21T09:13:42.192Z,22.1
2019-05-21T09:14:32.261Z,22.1
2019-05-21T09:15:22.317Z,22.1
2019-05-21T09:16:12.188Z,22.1
2019-05-21T09:17:02.179Z,22.1
2019-05-21T09:17:52.230Z,22.1
2019-05-21T09:18:42.579Z,22
2019-05-21T09:19:37.175Z,22.1
2019-05-21T09:20:22.709Z,22.1
2019-05-21T09:21:12.762Z,22.1
2019-05-21T09:22:02.831Z,22.1
2019-05-21T09:22:52.621Z,22.1
2019-05-21T09:23:43.126Z,22.1
2019-05-21T09:24:32.769Z,22.1
2019-05-21T09:25:22.797Z,22.1
2019-05-21T09:26:12.876Z,22.1
2019-05-21T09:27:03.214Z,22.1
2019-05-21T09:27:53.018Z,22.1
2019-05-21T09:28:43.348Z,22.1
2019-05-21T09:29:33.137Z,22.1
2019-05-21T09:30:23.461Z,22.1
2019-05-21T09:31:13.607Z,22.1
2019-05-21T09:32:03.866Z,22.1
2019-05-21T09:32:53.652Z,22.1
2019-05-21T09:33:43.723Z,22.1
2019-05-21T09:34:50.127Z,22.1
2019-05-21T09:35:23.580Z,22.1
2019-05-21T09:36:13.918Z,22.1
2019-05-21T09:37:21.004Z,22.1
2019-05-21T09:37:54.028Z,22.1
2019-05-21T09:38:44.141Z,22.1
2019-05-21T09:39:33.900Z,22.1
2019-05-21T09:40:24.230Z,22.1
2019-05-21T09:41:14.341Z,22.1
2019-05-21T09:42:04.123Z,22.1
2019-05-21T09:42:54.418Z,22.1
2019-05-21T09:43:44.478Z,22.1
2019-05-21T09:44:34.543Z,22.1
2019-05-21T09:45:24.338Z,22.1
2019-05-21T09:46:14.417Z,22.1
2019-05-21T09:47:04.750Z,22.1
2019-05-21T09:47:54.886Z,22.1
2019-05-21T09:48:44.579Z,22.1
2019-05-21T09:49:34.920Z,22.1
2019-05-21T09:50:24.812Z,22.1
2019-05-21T09:51:20.937Z,22.1
2019-05-21T09:52:04.955Z,22.1
2019-05-21T09:52:54.645Z,22.1
2019-05-21T09:53:45.262Z,22.1
2019-05-21T09:54:35.057Z,22.1
2019-05-21T09:55:25.385Z,22.1
2019-05-21T09:56:15.493Z,22.1
2019-05-21T09:57:05.544Z,22.1
2019-05-21T09:57:55.629Z,22.1
2019-05-21T09:58:45.684Z,22.1
2019-05-21T09:59:35.691Z,22.1
2019-05-21T10:00:25.797Z,22.1
2019-05-21T10:01:15.560Z,22.1
2019-05-21T10:02:05.902Z,22.1
2019-05-21T10:02:55.685Z,22.1
2019-05-21T10:05:21.959Z,22.1
2019-05-21T10:06:12.359Z,22.1
2019-05-21T10:07:02.404Z,22.1
2019-05-21T10:07:52.423Z,22.1
2019-05-21T10:08:42.501Z,22.1
2019-05-21T10:09:32.563Z,22.1
2019-05-21T10:10:22.337Z,22.1
2019-05-21T10:11:12.666Z,22.1
2019-05-21T10:12:02.813Z,22.1
2019-05-21T10:12:52.518Z,22.1
2019-05-21T10:13:42.904Z,22.1
2019-05-21T10:14:35.348Z,22.1
2019-05-21T10:15:22.993Z,22.1
2019-05-21T10:16:13.064Z,22.1
2019-05-21T10:17:02.871Z,22.1
2019-05-21T10:17:52.933Z,22.1
2019-05-21T10:18:43.270Z,22.1
2019-05-21T10:19:33.323Z,22.1
2019-05-21T10:20:23.118Z,22.1
2019-05-21T10:21:13.438Z,22.1
2019-05-21T10:22:03.854Z,22.1
2019-05-21T10:22:53.563Z,22.1
2019-05-21T10:23:43.638Z,22.1
2019-05-21T10:24:33.703Z,22.1
2019-05-21T10:25:23.475Z,22.1
2019-05-21T10:26:13.815Z,22.1
2019-05-21T10:27:04.689Z,22.1
2019-05-21T10:27:53.943Z,22.1
2019-05-21T10:28:44.017Z,22.1
2019-05-21T10:29:34.092Z,22
2019-05-21T10:30:24.142Z,22.1
2019-05-21T10:31:14.215Z,22.1
2019-05-21T10:32:04.347Z,22.1
2019-05-21T10:32:54.320Z,22.1
2019-05-21T10:33:44.130Z,22.1
2019-05-21T10:34:34.477Z,22.1
2019-05-21T10:35:24.247Z,22.1
2019-05-21T10:36:14.307Z,22.1
2019-05-21T10:37:04.408Z,22.1
2019-05-21T10:37:56.438Z,22.1
2019-05-21T10:38:44.777Z,22.1
2019-05-21T10:39:34.833Z,22.1
2019-05-21T10:40:24.912Z,22.1
2019-05-21T10:41:14.981Z,22.1
2019-05-21T10:42:05.043Z,22
2019-05-21T10:42:55.114Z,22
2019-05-21T10:43:44.897Z,22.1
2019-05-21T10:44:35.311Z,22.1
2019-05-21T10:45:25.024Z,22
2019-05-21T10:46:15.417Z,22.1
2019-05-21T10:47:05.421Z,22
2019-05-21T10:47:55.251Z,22
2019-05-21T10:48:45.547Z,22.1
2019-05-21T10:49:35.360Z,22
2019-05-21T10:50:25.699Z,22
2019-05-21T10:51:15.759Z,22.1
2019-05-21T10:52:05.807Z,22.1
2019-05-21T10:52:55.857Z,22.1
2019-05-21T10:53:45.931Z,22.1
2019-05-21T10:54:35.994Z,22.1
2019-05-21T10:55:26.041Z,22.1
2019-05-21T10:56:16.106Z,22
2019-05-21T10:57:06.174Z,22
2019-05-21T10:57:56.243Z,22.1
2019-05-21T10:58:46.354Z,22.1
2019-05-21T10:59:36.106Z,22
2019-05-21T11:00:26.431Z,22
2019-05-21T11:01:16.690Z,22.1
2019-05-21T11:02:06.403Z,22
2019-05-21T11:02:56.630Z,22.1
2019-05-21T11:03:46.686Z,22
2019-05-21T11:04:36.774Z,22
2019-05-21T11:05:29.918Z,22
2019-05-21T11:06:16.875Z,22
2019-05-21T11:07:06.658Z,22
2019-05-21T11:07:56.742Z,22.1
2019-05-21T11:09:36.899Z,22
2019-05-21T11:10:27.193Z,22
2019-05-21T11:11:22.348Z,22
2019-05-21T11:12:07.337Z,22
2019-05-21T11:12:57.391Z,22
2019-05-21T11:13:47.444Z,22
2019-05-21T11:14:37.240Z,22
2019-05-21T11:15:27.658Z,22
2019-05-21T11:16:17.405Z,22
2019-05-21T11:17:07.709Z,22
2019-05-21T11:18:12.545Z,22
2019-05-21T11:18:47.834Z,22
2019-05-21T11:19:37.643Z,22
2019-05-21T11:20:27.963Z,22
2019-05-21T11:21:17.778Z,22
2019-05-21T11:22:07.807Z,22
2019-05-21T11:22:59.186Z,22
2019-05-21T11:23:48.342Z,22
2019-05-21T11:24:38.267Z,22
2019-05-21T11:25:28.330Z,22
2019-05-21T11:26:18.136Z,22
2019-05-21T11:27:08.184Z,22
2019-05-21T11:27:58.534Z,22
2019-05-21T11:28:48.611Z,22
2019-05-21T11:29:38.682Z,22
2019-05-21T11:30:28.742Z,22
2019-05-21T11:31:18.524Z,22
2019-05-21T11:32:08.871Z,22
2019-05-21T11:32:58.907Z,22
2019-05-21T11:33:48.441Z,22
2019-05-21T11:34:39.171Z,22
2019-05-21T11:35:29.108Z,22
2019-05-21T11:36:19.166Z,22
2019-05-21T11:37:09.247Z,22
2019-05-21T11:37:59.338Z,22
2019-05-21T11:38:49.091Z,22
2019-05-21T11:39:39.418Z,22
2019-05-21T11:40:29.214Z,22
2019-05-21T11:41:19.563Z,22
2019-05-21T11:42:09.608Z,22
2019-05-21T11:42:59.762Z,22
2019-05-21T11:43:49.484Z,22
2019-05-21T11:44:39.806Z,22
2019-05-21T11:45:33.940Z,22
2019-05-21T11:46:19.986Z,22
2019-05-21T11:47:09.998Z,21.9
2019-05-21T11:48:00.068Z,22.1
2019-05-21T11:48:50.135Z,21.9
2019-05-21T11:49:39.940Z,22
2019-05-21T11:50:29.990Z,22
2019-05-21T11:51:20.051Z,22
2019-05-21T11:52:10.390Z,22
2019-05-21T11:53:00.453Z,22
2019-05-21T11:53:50.248Z,22
2019-05-21T11:54:40.582Z,22
2019-05-21T11:55:30.360Z,22
2019-05-21T11:56:20.750Z,22
2019-05-21T11:57:10.768Z,22
2019-05-21T11:58:00.553Z,22
2019-05-21T11:58:50.614Z,22
2019-05-21T11:59:40.946Z,22
2019-05-21T12:00:30.755Z,22
2019-05-21T12:01:20.821Z,22
2019-05-21T12:02:11.144Z,22
2019-05-21T12:03:00.956Z,22
2019-05-21T12:05:21.893Z,22
2019-05-21T12:06:12.238Z,22
2019-05-21T12:07:04.556Z,22
2019-05-21T12:07:52.338Z,22
2019-05-21T12:08:57.943Z,22
2019-05-21T12:09:32.212Z,22
2019-05-21T12:10:22.539Z,22
2019-05-21T12:11:12.671Z,22
2019-05-21T12:12:02.660Z,22
2019-05-21T12:12:52.735Z,22
2019-05-21T12:13:42.810Z,22
2019-05-21T12:14:32.571Z,22
2019-05-21T12:15:22.926Z,22
2019-05-21T12:16:12.713Z,22
2019-05-21T12:17:03.082Z,22
2019-05-21T12:17:52.576Z,22
2019-05-21T12:18:42.931Z,22
2019-05-21T12:19:32.959Z,22
2019-05-21T12:20:38.137Z,22
2019-05-21T12:21:13.086Z,22
2019-05-21T12:22:02.875Z,22
2019-05-21T12:22:52.945Z,22
2019-05-21T12:23:43.564Z,22
2019-05-21T12:24:33.621Z,22
2019-05-21T12:25:23.417Z,22
2019-05-21T12:26:13.770Z,22
2019-05-21T12:27:03.543Z,22
2019-05-21T12:27:53.880Z,22
2019-05-21T12:28:43.953Z,22
2019-05-21T12:29:35.456Z,22
2019-05-21T12:30:24.064Z,22
2019-05-21T12:31:14.130Z,22
2019-05-21T12:32:03.922Z,22
2019-05-21T12:32:54.262Z,22
2019-05-21T12:33:44.335Z,22
2019-05-21T12:34:34.373Z,22
2019-05-21T12:35:24.172Z,22
2019-05-21T12:36:14.513Z,22
2019-05-21T12:37:04.597Z,22
2019-05-21T12:37:54.635Z,22
2019-05-21T12:38:44.699Z,22
2019-05-21T12:39:34.481Z,22
2019-05-21T12:40:24.824Z,22
2019-05-21T12:41:15.206Z,22
2019-05-21T12:42:05.114Z,22
2019-05-21T12:42:55.012Z,22
2019-05-21T12:43:44.808Z,22
2019-05-21T12:44:35.160Z,22
2019-05-21T12:45:24.937Z,22
2019-05-21T12:46:15.001Z,22
2019-05-21T12:47:05.094Z,21.9
2019-05-21T12:47:55.126Z,22
2019-05-21T12:48:45.196Z,21.9
2019-05-21T12:49:35.526Z,21.9
2019-05-21T12:50:25.684Z,22
2019-05-21T12:51:15.399Z,21.9
2019-05-21T12:52:05.783Z,21.9
2019-05-21T12:52:55.769Z,22
2019-05-21T12:53:45.845Z,22
2019-05-21T12:54:35.625Z,22
2019-05-21T12:55:25.994Z,21.9
2019-05-21T12:56:15.770Z,22
2019-05-21T12:57:05.823Z,21.9
2019-05-21T12:57:55.911Z,22
2019-05-21T12:58:46.220Z,22
2019-05-21T12:59:36.290Z,21.9
2019-05-21T13:00:26.076Z,21.9
2019-05-21T13:01:16.410Z,21.9
2019-05-21T13:02:06.482Z,21.9
2019-05-21T13:02:56.568Z,21.9
2019-05-21T13:03:46.337Z,21.9
2019-05-21T13:04:36.689Z,21.9
2019-05-21T13:05:26.727Z,22
2019-05-21T13:06:16.313Z,21.9
2019-05-21T13:07:06.873Z,21.9
2019-05-21T13:07:56.638Z,21.9
2019-05-21T13:08:46.718Z,21.9
2019-05-21T13:09:37.115Z,21.9